createdAt,value
2022-09-05T00:00:48.861Z,9.366082
2022-09-05T00:01:48.842Z,9.366040
2022-09-05T00:02:49.653Z,9.365842
2022-09-05T00:03:48.913Z,9.365919
2022-09-05T00:04:48.841Z,9.366056
2022-09-05T00:06:02.237Z,9.365774
2022-09-05T00:06:49.805Z,9.365869
2022-09-05T00:07:59.134Z,9.365961
2022-09-05T00:08:48.807Z,9.365925
2022-09-05T00:09:48.830Z,9.366046
2022-09-05T00:11:39.803Z,9.365940
2022-09-05T00:11:48.742Z,9.365948
2022-09-05T00:12:48.759Z,9.365961
2022-09-05T00:13:48.724Z,9.366013
2022-09-05T00:15:14.581Z,9.365895
2022-09-05T00:15:48.804Z,9.365919
2022-09-05T00:16:48.684Z,9.365998
2022-09-05T00:19:35.465Z,9.365985
2022-09-05T00:24:17.609Z,9.366035
2022-09-05T00:24:17.784Z,9.366077
2022-09-05T00:24:28.181Z,9.365869
2022-09-05T00:24:29.815Z,9.365920
2022-09-05T00:24:30.241Z,9.366030
2022-09-05T00:24:35.591Z,9.365792
2022-09-05T00:25:14.061Z,9.365881
2022-09-05T00:25:49.643Z,9.365961
2022-09-05T00:26:48.620Z,9.366010
2022-09-05T00:27:48.564Z,9.365829
2022-09-05T00:28:48.589Z,9.365730
2022-09-05T00:31:06.097Z,9.365844
2022-09-05T00:31:51.960Z,9.365927
2022-09-05T00:31:53.910Z,9.365794
2022-09-05T00:32:48.570Z,9.365657
2022-09-05T00:33:48.525Z,9.365552
2022-09-05T00:34:48.528Z,9.365603
2022-09-05T00:35:48.504Z,9.365856
2022-09-05T00:36:48.537Z,9.365956
2022-09-05T00:37:48.495Z,9.366126
2022-09-05T00:38:48.509Z,9.366009
2022-09-05T00:39:57.805Z,9.365871
2022-09-05T00:40:48.450Z,9.365787
2022-09-05T00:41:48.455Z,9.365868
2022-09-05T00:42:48.536Z,9.365987
2022-09-05T00:43:48.440Z,9.365884
2022-09-05T00:44:48.435Z,9.365793
2022-09-05T00:45:48.411Z,9.365731
2022-09-05T00:46:48.479Z,9.365812
2022-09-05T00:47:48.559Z,9.366002
2022-09-05T00:48:48.367Z,9.366050
2022-09-05T00:49:48.371Z,9.365939
2022-09-05T00:50:48.392Z,9.365885
2022-09-05T00:51:48.330Z,9.365952
2022-09-05T00:53:04.996Z,9.366001
2022-09-05T00:53:48.361Z,9.365782
2022-09-05T00:54:48.303Z,9.365989
2022-09-05T00:55:48.325Z,9.365994
2022-09-05T00:56:48.303Z,9.365927
2022-09-05T00:57:48.281Z,9.365970
2022-09-05T00:58:48.340Z,9.366077
2022-09-05T00:59:50.897Z,9.366033
2022-09-05T01:00:48.256Z,9.366084
2022-09-05T01:01:48.321Z,9.366054
2022-09-05T01:02:52.120Z,9.366088
2022-09-05T01:03:48.200Z,9.365931
2022-09-05T01:04:48.414Z,9.365968
2022-09-05T01:05:48.223Z,9.365928
2022-09-05T01:06:48.172Z,9.365923
2022-09-05T01:07:48.181Z,9.365920
2022-09-05T01:08:48.152Z,9.366076
2022-09-05T01:09:48.192Z,9.366001
2022-09-05T01:10:48.121Z,9.365784
2022-09-05T01:11:48.138Z,9.365669
2022-09-05T01:12:52.685Z,9.365662
2022-09-05T01:13:48.124Z,9.365943
2022-09-05T01:14:48.099Z,9.366085
2022-09-05T01:15:48.136Z,9.366100
2022-09-05T01:16:48.078Z,9.366061
2022-09-05T01:17:48.285Z,9.366006
2022-09-05T01:18:48.043Z,9.366007
2022-09-05T01:19:48.085Z,9.366032
2022-09-05T01:20:48.086Z,9.365989
2022-09-05T01:21:48.122Z,9.366052
2022-09-05T01:22:48.036Z,9.366047
2022-09-05T01:23:48.006Z,9.366035
2022-09-05T01:24:47.996Z,9.366043
2022-09-05T01:25:52.428Z,9.366080
2022-09-05T01:26:48.031Z,9.366052
2022-09-05T01:27:56.227Z,9.365993
2022-09-05T01:29:15.426Z,9.366023
2022-09-05T01:29:48.936Z,9.365991
2022-09-05T01:30:47.977Z,9.365896
2022-09-05T01:31:47.964Z,9.365880
2022-09-05T01:32:47.903Z,9.365860
2022-09-05T01:33:47.897Z,9.365915
2022-09-05T01:34:47.889Z,9.365954
2022-09-05T01:36:01.937Z,9.365989
2022-09-05T01:36:47.887Z,9.365983
2022-09-05T01:37:47.867Z,9.366023
2022-09-05T01:39:15.221Z,9.366027
2022-09-05T01:40:14.438Z,9.365930
2022-09-05T01:40:53.615Z,9.365973
2022-09-05T01:41:47.839Z,9.365999
2022-09-05T01:42:47.841Z,9.365913
2022-09-05T01:43:47.786Z,9.365902
2022-09-05T01:44:47.805Z,9.366000
2022-09-05T01:45:47.759Z,9.366071
2022-09-05T01:46:47.754Z,9.365915
2022-09-05T01:47:47.826Z,9.365836
2022-09-05T01:48:47.985Z,9.366063
2022-09-05T01:49:47.724Z,9.366114
2022-09-05T01:50:47.724Z,9.366020
2022-09-05T01:51:47.717Z,9.365981
2022-09-05T01:53:00.304Z,9.366003
2022-09-05T01:53:47.683Z,9.365911
2022-09-05T01:54:47.691Z,9.366020
2022-09-05T01:56:04.907Z,9.366068
2022-09-05T01:56:48.678Z,9.366020
2022-09-05T01:57:47.656Z,9.365938
2022-09-05T01:58:47.658Z,9.365952
2022-09-05T01:59:47.628Z,9.365954
2022-09-05T02:00:47.637Z,9.365984
2022-09-05T02:01:47.686Z,9.365973
2022-09-05T02:02:50.140Z,9.366004
2022-09-05T02:03:47.627Z,9.366024
2022-09-05T02:04:47.668Z,9.366057
2022-09-05T02:05:49.678Z,9.366009
2022-09-05T02:06:47.562Z,9.365992
2022-09-05T02:07:47.545Z,9.366159
2022-09-05T02:08:48.597Z,9.366245
2022-09-05T02:09:47.521Z,9.366298
2022-09-05T02:10:47.518Z,9.365982
2022-09-05T02:11:47.524Z,9.365701
2022-09-05T02:13:02.483Z,9.365882
2022-09-05T02:13:47.531Z,9.365921
2022-09-05T02:14:47.513Z,9.366031
2022-09-05T02:15:59.208Z,9.365884
2022-09-05T02:16:47.485Z,9.366030
2022-09-05T02:17:51.073Z,9.365844
2022-09-05T02:18:47.496Z,9.365755
2022-09-05T02:19:47.446Z,9.365689
2022-09-05T02:20:47.414Z,9.365748
2022-09-05T02:21:56.706Z,9.365679
2022-09-05T02:22:47.398Z,9.365469
2022-09-05T02:23:47.895Z,9.365104
2022-09-05T02:24:47.425Z,9.364386
2022-09-05T02:26:01.168Z,9.363999
2022-09-05T02:26:47.346Z,9.364569
2022-09-05T02:28:04.209Z,9.364904
2022-09-05T02:28:47.364Z,9.365157
2022-09-05T02:29:47.330Z,9.364762
2022-09-05T02:31:01.547Z,9.365036
2022-09-05T02:31:47.340Z,9.365503
2022-09-05T02:32:47.285Z,9.365670
2022-09-05T02:33:47.318Z,9.365634
2022-09-05T02:34:47.273Z,9.365719
2022-09-05T02:35:47.262Z,9.365841
2022-09-05T02:36:47.279Z,9.365703
2022-09-05T02:38:58.050Z,9.365789
2022-09-05T02:45:01.927Z,9.365602
2022-09-05T02:45:06.292Z,9.365595
2022-09-05T02:45:06.403Z,9.365628
2022-09-05T02:45:06.537Z,9.365585
2022-09-05T02:45:11.604Z,9.365653
2022-09-05T02:45:13.847Z,9.365994
2022-09-05T02:45:23.770Z,9.365721
2022-09-05T02:45:47.246Z,9.365582
2022-09-05T02:46:47.221Z,9.365325
2022-09-05T02:47:47.122Z,9.365991
2022-09-05T02:48:47.143Z,9.365843
2022-09-05T02:50:50.126Z,9.366027
2022-09-05T02:55:38.490Z,9.365888
2022-09-05T02:57:23.868Z,9.365888
2022-09-05T02:57:35.916Z,9.366128
2022-09-05T02:57:40.246Z,9.366390
2022-09-05T02:57:40.790Z,9.366071
2022-09-05T02:57:41.939Z,9.365989
2022-09-05T02:57:42.314Z,9.366169
2022-09-05T02:58:04.753Z,9.366225
2022-09-05T02:59:08.629Z,9.366304
2022-09-05T02:59:47.380Z,9.366104
2022-09-05T03:00:48.135Z,9.366488
2022-09-05T03:01:47.054Z,9.366128
2022-09-05T03:02:47.045Z,9.365966
2022-09-05T03:03:46.952Z,9.366147
2022-09-05T03:04:46.983Z,9.366090
2022-09-05T03:05:46.944Z,9.366030
2022-09-05T03:06:46.955Z,9.366048
2022-09-05T03:07:46.932Z,9.365982
2022-09-05T03:08:46.941Z,9.366099
2022-09-05T03:09:46.939Z,9.366028
2022-09-05T03:10:53.334Z,9.365902
2022-09-05T03:11:46.903Z,9.366011
2022-09-05T03:12:46.875Z,9.365947
2022-09-05T03:13:48.872Z,9.365833
2022-09-05T03:14:46.864Z,9.365969
2022-09-05T03:15:46.846Z,9.365968
2022-09-05T03:16:47.647Z,9.365939
2022-09-05T03:17:46.841Z,9.365954
2022-09-05T03:18:46.789Z,9.365909
2022-09-05T03:19:47.028Z,9.366032
2022-09-05T03:20:46.801Z,9.365969
2022-09-05T03:21:46.758Z,9.365992
2022-09-05T03:22:46.755Z,9.365947
2022-09-05T03:23:46.759Z,9.365968
2022-09-05T03:24:55.589Z,9.366013
2022-09-05T03:25:46.765Z,9.365920
2022-09-05T03:26:46.723Z,9.365967
2022-09-05T03:27:46.709Z,9.365859
2022-09-05T03:28:46.699Z,9.365927
2022-09-05T03:29:46.694Z,9.366099
2022-09-05T03:30:46.860Z,9.366108
2022-09-05T03:31:46.650Z,9.365932
2022-09-05T03:32:46.656Z,9.365952
2022-09-05T03:33:46.625Z,9.365891
2022-09-05T03:34:46.645Z,9.365916
2022-09-05T03:35:46.646Z,9.365995
2022-09-05T03:36:46.645Z,9.365962
2022-09-05T03:37:46.597Z,9.366015
2022-09-05T03:38:47.150Z,9.366027
2022-09-05T03:39:46.619Z,9.365994
2022-09-05T03:40:46.565Z,9.365991
2022-09-05T03:41:46.569Z,9.366003
2022-09-05T03:42:46.560Z,9.366028
2022-09-05T03:43:46.530Z,9.366028
2022-09-05T03:44:46.513Z,9.365989
2022-09-05T03:45:47.265Z,9.365949
2022-09-05T03:46:46.531Z,9.365991
2022-09-05T03:47:46.491Z,9.365992
2022-09-05T03:48:46.482Z,9.365901
2022-09-05T03:52:45.782Z,9.365863
2022-09-05T03:56:47.437Z,9.366035
2022-09-05T03:57:04.265Z,9.365981
2022-09-05T03:57:05.935Z,9.365923
2022-09-05T03:57:13.296Z,9.366048
2022-09-05T03:57:14.198Z,9.365979
2022-09-05T03:57:19.161Z,9.366031
2022-09-05T03:57:27.109Z,9.366067
2022-09-05T03:57:47.393Z,9.365965
2022-09-05T03:59:01.889Z,9.365950
2022-09-05T03:59:48.435Z,9.365973
2022-09-05T04:00:46.370Z,9.365970
2022-09-05T04:48:12.031Z,9.366164
2022-09-05T04:48:36.694Z,9.366076
2022-09-05T04:49:36.137Z,9.366014
2022-09-05T04:50:38.236Z,9.366019
2022-09-05T04:51:35.975Z,9.365947
2022-09-05T04:52:35.972Z,9.365932
2022-09-05T04:53:35.956Z,9.365952
2022-09-05T04:54:35.916Z,9.365958
2022-09-05T04:55:35.946Z,9.365944
2022-09-05T04:56:35.926Z,9.365974
2022-09-05T04:57:36.026Z,9.366014
2022-09-05T04:59:41.870Z,9.366043
2022-09-05T05:05:16.550Z,9.366061
2022-09-05T05:05:58.426Z,9.366053
2022-09-05T05:06:00.597Z,9.365999
2022-09-05T05:06:13.724Z,9.366070
2022-09-05T05:06:14.482Z,9.365986
2022-09-05T05:06:15.298Z,9.366010
2022-09-05T05:06:16.909Z,9.366006
2022-09-05T05:06:45.493Z,9.365995
2022-09-05T05:07:37.883Z,9.366010
2022-09-05T05:08:38.906Z,9.366131
2022-09-05T05:09:35.921Z,9.365998
2022-09-05T05:14:48.466Z,9.365991
2022-09-05T05:17:55.597Z,9.366168
2022-09-05T05:17:57.032Z,9.366094
2022-09-05T05:17:57.330Z,9.366170
2022-09-05T05:18:07.470Z,9.366159
2022-09-05T05:18:15.784Z,9.366159
2022-09-05T05:18:16.109Z,9.366123
2022-09-05T05:18:16.248Z,9.366159
2022-09-05T05:18:53.295Z,9.366159
2022-09-05T05:19:35.880Z,9.366159
2022-09-05T05:20:42.289Z,9.366340
2022-09-05T05:21:36.645Z,9.366004
2022-09-05T05:22:35.626Z,9.365864
2022-09-05T05:23:35.594Z,9.365949
2022-09-05T05:24:35.623Z,9.365973
2022-09-05T05:25:35.578Z,9.365916
2022-09-05T05:26:35.579Z,9.365809
2022-09-05T05:27:35.605Z,9.365857
2022-09-05T05:28:35.719Z,9.365961
2022-09-05T05:29:36.701Z,9.365911
2022-09-05T05:30:35.546Z,9.366009
2022-09-05T05:31:35.565Z,9.366019
2022-09-05T05:32:45.637Z,9.365918
2022-09-05T05:33:35.493Z,9.366084
2022-09-05T05:34:35.484Z,9.366124
2022-09-05T05:35:47.896Z,9.366062
2022-09-05T05:36:36.459Z,9.366103
2022-09-05T05:37:35.450Z,9.366053
2022-09-05T05:38:35.450Z,9.366116
2022-09-05T05:39:35.492Z,9.366025
2022-09-05T05:40:50.904Z,9.366032
2022-09-05T05:41:35.422Z,9.365969
2022-09-05T05:42:35.415Z,9.366185
2022-09-05T05:43:35.388Z,9.366160
2022-09-05T05:44:35.428Z,9.366136
2022-09-05T05:45:35.446Z,9.366175
2022-09-05T05:46:35.342Z,9.366156
2022-09-05T05:47:35.355Z,9.366125
2022-09-05T05:48:35.320Z,9.366167
2022-09-05T05:49:35.358Z,9.366076
2022-09-05T05:50:35.307Z,9.365988
2022-09-05T05:51:38.346Z,9.365858
2022-09-05T05:52:35.289Z,9.366034
2022-09-05T05:53:43.110Z,9.365974
2022-09-05T05:54:35.300Z,9.365806
2022-09-05T05:55:51.871Z,9.366006
2022-09-05T05:56:35.257Z,9.365978
2022-09-05T05:57:35.234Z,9.366119
2022-09-05T05:58:35.202Z,9.366117
2022-09-05T05:59:35.198Z,9.365977
2022-09-05T06:00:35.204Z,9.365992
2022-09-05T06:01:37.975Z,9.366047
2022-09-05T06:02:35.275Z,9.366048
2022-09-05T06:03:35.216Z,9.366047
2022-09-05T06:04:35.136Z,9.365975
2022-09-05T06:05:35.648Z,9.366037
2022-09-05T06:06:36.125Z,9.366088
2022-09-05T06:08:58.859Z,9.365995
2022-09-05T06:12:08.322Z,9.366031
2022-09-05T06:14:50.161Z,9.366030
2022-09-05T06:14:52.969Z,9.366061
2022-09-05T06:14:57.885Z,9.366127
2022-09-05T06:15:01.179Z,9.366091
2022-09-05T06:15:01.766Z,9.366088
2022-09-05T06:15:02.810Z,9.366115
2022-09-05T06:15:35.989Z,9.366067
2022-09-05T06:16:35.091Z,9.366129
2022-09-05T06:17:35.005Z,9.366106
2022-09-05T06:18:34.986Z,9.366141
2022-09-05T06:21:39.017Z,9.366161
2022-09-05T06:22:09.468Z,9.365962
2022-09-05T06:22:11.747Z,9.365872
2022-09-05T06:22:34.961Z,9.365969
2022-09-05T06:23:39.125Z,9.365940
2022-09-05T06:24:34.916Z,9.366023
2022-09-05T06:25:34.917Z,9.365830
2022-09-05T06:26:34.923Z,9.366108
2022-09-05T06:27:34.907Z,9.365828
2022-09-05T06:28:34.887Z,9.366065
2022-09-05T06:29:38.588Z,9.365893
2022-09-05T06:30:34.859Z,9.366012
2022-09-05T06:31:35.028Z,9.365898
2022-09-05T06:32:34.830Z,9.366009
2022-09-05T06:33:34.837Z,9.366059
2022-09-05T06:34:35.685Z,9.366318
2022-09-05T06:35:34.808Z,9.366734
2022-09-05T06:36:34.856Z,9.366384
2022-09-05T06:37:34.787Z,9.366464
2022-09-05T06:38:34.767Z,9.366011
2022-09-05T06:39:34.815Z,9.366160
2022-09-05T06:40:34.742Z,9.366410
2022-09-05T06:41:34.774Z,9.366395
2022-09-05T06:42:43.358Z,9.366329
2022-09-05T06:43:34.708Z,9.366156
2022-09-05T06:44:34.694Z,9.366167
2022-09-05T06:45:34.697Z,9.366218
2022-09-05T06:46:54.855Z,9.366176
2022-09-05T06:47:34.743Z,9.366230
2022-09-05T06:48:44.191Z,9.366104
2022-09-05T06:49:38.683Z,9.366267
2022-09-05T06:50:39.455Z,9.366257
2022-09-05T06:51:34.620Z,9.366306
2022-09-05T06:52:34.621Z,9.366209
2022-09-05T06:53:34.896Z,9.366305
2022-09-05T06:54:34.583Z,9.366201
2022-09-05T06:55:34.581Z,9.366261
2022-09-05T06:56:34.564Z,9.366278
2022-09-05T06:57:34.571Z,9.366618
2022-09-05T06:58:34.551Z,9.366394
2022-09-05T06:59:34.526Z,9.366376
2022-09-05T07:00:34.552Z,9.366351
2022-09-05T07:01:50.048Z,9.366450
2022-09-05T07:02:58.767Z,9.366310
2022-09-05T07:03:34.506Z,9.366310
2022-09-05T07:05:23.619Z,9.365979
2022-09-05T07:05:44.586Z,9.365906
2022-09-05T07:07:01.888Z,9.365933
2022-09-05T07:07:34.475Z,9.365940
2022-09-05T07:08:35.910Z,9.365972
2022-09-05T07:09:35.192Z,9.365978
2022-09-05T07:10:38.949Z,9.365940
2022-09-05T07:11:35.392Z,9.365979
2022-09-05T07:12:34.364Z,9.365972
2022-09-05T07:13:34.391Z,9.365981
2022-09-05T07:14:34.361Z,9.366063
2022-09-05T07:15:34.337Z,9.366005
2022-09-05T07:16:37.903Z,9.366051
2022-09-05T07:17:44.542Z,9.366001
2022-09-05T07:18:34.311Z,9.366329
2022-09-05T07:19:34.303Z,9.365952
2022-09-05T07:20:34.286Z,9.366138
2022-09-05T07:21:35.205Z,9.365987
2022-09-05T07:22:46.950Z,9.365933
2022-09-05T07:23:57.802Z,9.366021
2022-09-05T07:24:54.068Z,9.365998
2022-09-05T07:25:37.198Z,9.365964
2022-09-05T07:26:49.711Z,9.365913
2022-09-05T07:27:34.185Z,9.365981
2022-09-05T07:28:34.215Z,9.365960
2022-09-05T07:29:34.157Z,9.365932
2022-09-05T07:30:34.170Z,9.365840
2022-09-05T07:31:37.594Z,9.365896
2022-09-05T07:32:34.138Z,9.366007
2022-09-05T07:33:34.173Z,9.365849
2022-09-05T07:34:34.113Z,9.365864
2022-09-05T07:35:41.477Z,9.365951
2022-09-05T07:36:34.111Z,9.366058
2022-09-05T07:37:34.081Z,9.365984
2022-09-05T07:38:48.289Z,9.365959
2022-09-05T07:39:34.080Z,9.365978
2022-09-05T07:40:34.051Z,9.366057
2022-09-05T07:41:34.021Z,9.365956
2022-09-05T07:42:34.031Z,9.366024
2022-09-05T07:43:34.018Z,9.366014
2022-09-05T07:44:34.041Z,9.365966
2022-09-05T07:45:34.037Z,9.365915
2022-09-05T07:46:33.978Z,9.365942
2022-09-05T07:47:33.948Z,9.365890
2022-09-05T07:48:35.185Z,9.365925
2022-09-05T07:49:33.994Z,9.365988
2022-09-05T07:54:28.396Z,9.365947
2022-09-05T07:56:50.433Z,9.365862
2022-09-05T07:56:50.435Z,9.365965
2022-09-05T07:56:59.130Z,9.365966
2022-09-05T07:57:02.493Z,9.365935
2022-09-05T07:57:03.982Z,9.366002
2022-09-05T07:57:10.463Z,9.365919
2022-09-05T07:57:51.485Z,9.365960
2022-09-05T07:58:33.813Z,9.365975
2022-09-05T07:59:33.873Z,9.365962
2022-09-05T08:00:33.960Z,9.365886
2022-09-05T08:01:39.433Z,9.366020
2022-09-05T08:02:33.805Z,9.366111
2022-09-05T08:03:33.761Z,9.366026
2022-09-05T08:04:33.816Z,9.366187
2022-09-05T08:05:35.631Z,9.366088
2022-09-05T08:07:45.599Z,9.365972
2022-09-05T08:07:49.848Z,9.365802
2022-09-05T08:08:33.723Z,9.365982
2022-09-05T08:10:06.298Z,9.366054
2022-09-05T08:10:54.987Z,9.366136
2022-09-05T08:11:33.665Z,9.366109
2022-09-05T08:13:23.044Z,9.366156
2022-09-05T08:13:34.718Z,9.366019
2022-09-05T08:14:45.433Z,9.366153
2022-09-05T08:16:06.667Z,9.366074
2022-09-05T08:16:33.672Z,9.366205
2022-09-05T08:17:33.601Z,9.366045
2022-09-05T08:18:33.607Z,9.365964
2022-09-05T08:19:33.623Z,9.365994
2022-09-05T08:20:33.603Z,9.366085
2022-09-05T08:21:37.883Z,9.366195
2022-09-05T08:22:34.566Z,9.366117
2022-09-05T08:23:33.549Z,9.366059
2022-09-05T08:24:33.535Z,9.365952
2022-09-05T08:25:37.576Z,9.365960
2022-09-05T08:26:33.509Z,9.366009
2022-09-05T08:27:33.517Z,9.365977
2022-09-05T08:28:38.895Z,9.366063
2022-09-05T08:29:33.471Z,9.366059
2022-09-05T08:30:33.532Z,9.366025
2022-09-05T08:31:33.472Z,9.366005
2022-09-05T08:32:35.348Z,9.366039
2022-09-05T08:33:33.452Z,9.366042
2022-09-05T08:34:44.803Z,9.365972
2022-09-05T08:35:33.423Z,9.365993
2022-09-05T08:36:33.405Z,9.365905
2022-09-05T08:37:33.425Z,9.365915
2022-09-05T08:38:37.370Z,9.365994
2022-09-05T08:39:34.547Z,9.366035
2022-09-05T08:40:33.367Z,9.365977
2022-09-05T08:41:49.305Z,9.365993
2022-09-05T08:42:33.331Z,9.365994
2022-09-05T08:46:06.456Z,9.366001
2022-09-05T08:46:40.232Z,9.365946
2022-09-05T08:46:40.698Z,9.365977
2022-09-05T08:46:48.425Z,9.365976
2022-09-05T08:47:45.222Z,9.365987
2022-09-05T08:48:33.257Z,9.366008
2022-09-05T08:49:37.627Z,9.365917
2022-09-05T08:50:34.744Z,9.365899
2022-09-05T08:51:33.261Z,9.365952
2022-09-05T08:52:33.219Z,9.365629
2022-09-05T08:53:46.424Z,9.365749
2022-09-05T08:54:33.193Z,9.366211
2022-09-05T08:55:33.180Z,9.366407
2022-09-05T08:56:33.219Z,9.366077
2022-09-05T08:57:33.162Z,9.365994
2022-09-05T08:58:33.174Z,9.365961
2022-09-05T08:59:33.471Z,9.366026
2022-09-05T09:00:33.126Z,9.365985
2022-09-05T09:01:50.227Z,9.366011
2022-09-05T09:02:46.971Z,9.365974
2022-09-05T09:03:33.146Z,9.365927
2022-09-05T09:04:56.233Z,9.365992
2022-09-05T09:05:58.039Z,9.366025
2022-09-05T09:06:33.057Z,9.366002
2022-09-05T09:07:51.157Z,9.366053
2022-09-05T09:08:33.304Z,9.365988
2022-09-05T09:09:33.025Z,9.365968
2022-09-05T09:10:33.023Z,9.366070
2022-09-05T09:11:32.983Z,9.366013
2022-09-05T09:12:33.040Z,9.365981
2022-09-05T09:13:32.958Z,9.366010
2022-09-05T09:14:32.983Z,9.365988
2022-09-05T09:15:32.939Z,9.365973
2022-09-05T09:16:33.016Z,9.365920
2022-09-05T09:17:32.973Z,9.366007
2022-09-05T09:18:35.944Z,9.366076
2022-09-05T09:19:32.902Z,9.366049
2022-09-05T09:20:32.903Z,9.366028
2022-09-05T09:21:32.880Z,9.366060
2022-09-05T09:22:32.920Z,9.366001
2022-09-05T09:23:33.006Z,9.365988
2022-09-05T09:24:33.845Z,9.366055
2022-09-05T09:25:34.122Z,9.366029
2022-09-05T09:26:32.831Z,9.366086
2022-09-05T09:28:13.619Z,9.366033
2022-09-05T09:28:50.052Z,9.365998
2022-09-05T09:29:32.793Z,9.365971
2022-09-05T09:30:32.925Z,9.366069
2022-09-05T09:31:32.862Z,9.366048
2022-09-05T09:32:32.779Z,9.366062
2022-09-05T09:33:32.893Z,9.366026
2022-09-05T09:34:32.756Z,9.366117
2022-09-05T09:35:32.737Z,9.366063
2022-09-05T09:36:32.712Z,9.366113
2022-09-05T09:37:50.920Z,9.366078
2022-09-05T09:38:32.718Z,9.366087
2022-09-05T09:39:38.119Z,9.366059
2022-09-05T09:40:32.697Z,9.366031
2022-09-05T09:41:32.650Z,9.366083
2022-09-05T09:42:34.183Z,9.366126
2022-09-05T09:43:32.697Z,9.366050
2022-09-05T09:44:32.619Z,9.366167
2022-09-05T09:45:32.617Z,9.366072
2022-09-05T09:46:32.657Z,9.366057
2022-09-05T09:47:32.589Z,9.366104
2022-09-05T09:48:32.598Z,9.366138
2022-09-05T09:49:32.606Z,9.366112
2022-09-05T09:50:32.906Z,9.366096
2022-09-05T09:51:32.578Z,9.366086
2022-09-05T09:52:32.540Z,9.366014
2022-09-05T09:53:37.042Z,9.365979
2022-09-05T09:54:33.140Z,9.366002
2022-09-05T09:55:32.543Z,9.365992
2022-09-05T09:56:32.508Z,9.365968
2022-09-05T09:57:32.496Z,9.365970
2022-09-05T09:58:32.486Z,9.366006
2022-09-05T09:59:32.494Z,9.366028
2022-09-05T10:00:32.442Z,9.366042
2022-09-05T10:01:36.914Z,9.365934
2022-09-05T10:04:12.525Z,9.365992
2022-09-05T10:09:07.933Z,9.365961
2022-09-05T10:10:35.026Z,9.366019
2022-09-05T10:10:47.955Z,9.365994
2022-09-05T10:10:51.764Z,9.366121
2022-09-05T10:10:52.398Z,9.366097
2022-09-05T10:10:55.124Z,9.366029
2022-09-05T10:10:55.368Z,9.366019
2022-09-05T10:10:58.217Z,9.365911
2022-09-05T10:11:53.002Z,9.366098
2022-09-05T10:12:33.432Z,9.366219
2022-09-05T10:13:32.356Z,9.366100
2022-09-05T10:50:24.428Z,9.366116
2022-09-05T11:13:29.393Z,9.365946
2022-09-05T11:14:30.770Z,9.365990
2022-09-05T15:52:44.259Z,9.365865
2022-09-05T15:53:44.013Z,9.365874
2022-09-05T15:54:46.383Z,9.365911
2022-09-05T15:55:43.859Z,9.365998
2022-09-05T15:56:43.865Z,9.366022
2022-09-05T15:57:43.877Z,9.365887
2022-09-05T15:58:53.671Z,9.365993
2022-09-05T15:59:43.913Z,9.365989
2022-09-05T16:00:46.166Z,9.366062
2022-09-05T16:01:59.948Z,9.365858
2022-09-05T16:02:44.981Z,9.365747
2022-09-05T16:06:37.670Z,9.365703
2022-09-05T16:09:40.972Z,9.365936
2022-09-05T16:10:30.608Z,9.365906
2022-09-05T16:10:33.925Z,9.365953
2022-09-05T16:10:37.564Z,9.365921
2022-09-05T16:10:46.269Z,9.365978
2022-09-05T16:10:46.733Z,9.365943
2022-09-05T16:11:13.968Z,9.365943
2022-09-05T16:12:14.434Z,9.365939
2022-09-05T16:12:44.712Z,9.365854
2022-09-05T16:13:53.219Z,9.365988
2022-09-05T16:14:52.888Z,9.366035
2022-09-05T16:17:24.839Z,9.366025
2022-09-05T16:23:19.203Z,9.366050
2022-09-05T16:23:20.216Z,9.365934
2022-09-05T16:23:24.938Z,9.366016
2022-09-05T16:23:26.564Z,9.365924
2022-09-05T16:23:27.188Z,9.365879
2022-09-05T16:23:28.693Z,9.365974
2022-09-05T16:23:30.460Z,9.365937
2022-09-05T16:23:44.050Z,9.365891
2022-09-05T16:24:59.584Z,9.365913
2022-09-05T16:25:43.614Z,9.365970
2022-09-05T16:26:43.529Z,9.365934
2022-09-05T16:27:44.219Z,9.365823
2022-09-05T16:28:47.563Z,9.365960
2022-09-05T16:29:50.447Z,9.365906
2022-09-05T16:30:51.038Z,9.365973
2022-09-05T16:31:43.567Z,9.366002
2022-09-05T16:32:46.518Z,9.365923
2022-09-05T16:33:43.513Z,9.365962
2022-09-05T16:34:43.662Z,9.366063
2022-09-05T16:35:43.446Z,9.366069
2022-09-05T19:54:55.229Z,9.366036
2022-09-05T19:55:54.908Z,9.366385
2022-09-05T19:56:54.914Z,9.366042
2022-09-05T19:58:17.172Z,9.366006
2022-09-05T19:58:54.852Z,9.366039
2022-09-05T19:59:54.828Z,9.366194
2022-09-05T20:01:01.431Z,9.365944
2022-09-05T20:01:55.861Z,9.365900
2022-09-05T20:02:54.815Z,9.365863
2022-09-05T20:03:54.807Z,9.365956
2022-09-05T20:04:54.754Z,9.365934
2022-09-05T20:05:54.777Z,9.365888
2022-09-05T20:06:54.770Z,9.366062
2022-09-05T20:07:54.719Z,9.365973
2022-09-05T20:08:54.713Z,9.366041
2022-09-05T20:09:54.938Z,9.365889
2022-09-05T20:10:54.706Z,9.366377
2022-09-05T20:11:54.700Z,9.366088
2022-09-05T20:12:54.697Z,9.366023
2022-09-05T20:13:54.676Z,9.365802
2022-09-05T20:14:54.654Z,9.366107
2022-09-05T20:15:54.657Z,9.366294
2022-09-05T20:16:54.623Z,9.366042
2022-09-05T20:17:54.595Z,9.366255
2022-09-05T20:18:54.581Z,9.366288
2022-09-05T20:19:54.597Z,9.366030
2022-09-05T20:20:54.556Z,9.366021
2022-09-05T20:21:57.012Z,9.365999
2022-09-05T20:22:54.557Z,9.366052
2022-09-05T20:23:54.518Z,9.366012
2022-09-05T20:24:54.563Z,9.366105
2022-09-05T20:25:55.962Z,9.366019
2022-09-05T20:26:55.520Z,9.365932
2022-09-05T20:27:54.499Z,9.366079
2022-09-05T20:28:54.832Z,9.366043
2022-09-05T20:29:55.929Z,9.365911
2022-09-05T20:30:54.477Z,9.366018
2022-09-05T20:31:54.457Z,9.365979
2022-09-05T20:32:54.482Z,9.366002
2022-09-05T20:33:54.397Z,9.365902
2022-09-05T20:36:56.323Z,9.366001
2022-09-05T20:43:09.872Z,9.366093
2022-09-05T20:43:10.557Z,9.366018
2022-09-05T20:43:15.896Z,9.365793
2022-09-05T20:43:17.502Z,9.365734
2022-09-05T20:43:18.145Z,9.366040
2022-09-05T20:43:23.803Z,9.366024
2022-09-05T20:43:28.731Z,9.365856
2022-09-05T20:43:30.512Z,9.365792
2022-09-05T20:43:54.506Z,9.365957
2022-09-05T20:44:54.272Z,9.365754
2022-09-05T20:47:41.980Z,9.365904
2022-09-05T20:54:05.956Z,9.366055
2022-09-05T20:54:07.982Z,9.366050
2022-09-05T20:54:10.490Z,9.366050
2022-09-05T20:54:13.412Z,9.365991
2022-09-05T20:54:15.601Z,9.366037
2022-09-05T20:54:20.542Z,9.365979
2022-09-05T20:54:21.962Z,9.365979
2022-09-05T20:54:26.982Z,9.365895
2022-09-05T20:54:54.199Z,9.365981
2022-09-05T20:55:54.153Z,9.365935
2022-09-05T20:56:56.358Z,9.365933
2022-09-05T20:57:54.142Z,9.365949
2022-09-05T20:58:54.107Z,9.366025
2022-09-05T20:59:54.249Z,9.365998
2022-09-05T21:01:21.210Z,9.365973
2022-09-05T21:01:54.136Z,9.366047
2022-09-05T21:02:54.246Z,9.366179
2022-09-05T21:03:54.019Z,9.366075
2022-09-05T21:04:54.040Z,9.365994
2022-09-05T21:05:54.003Z,9.366001
2022-09-05T21:06:53.989Z,9.365891
2022-09-05T21:08:06.875Z,9.366003
2022-09-05T21:08:53.977Z,9.366106
2022-09-05T21:09:53.950Z,9.365997
2022-09-05T21:10:54.967Z,9.365943
2022-09-05T21:11:53.965Z,9.366002
2022-09-05T21:12:53.941Z,9.365995
2022-09-05T21:13:53.918Z,9.365985
2022-09-05T21:14:53.906Z,9.366022
2022-09-05T21:15:54.390Z,9.366027
2022-09-05T21:16:53.872Z,9.365983
2022-09-05T21:17:53.867Z,9.365992
2022-09-05T21:18:53.883Z,9.365948
2022-09-05T21:19:54.431Z,9.365997
2022-09-05T21:20:53.802Z,9.365951
2022-09-05T21:21:53.825Z,9.365942
2022-09-05T21:22:53.797Z,9.365983
2022-09-05T21:23:53.850Z,9.365944